Time;durP1;ratioP1;P1;durP2;ratioP2;P2;SDS_P1;SDS_P2;PMS_P1;PMS_P2;Temp;Humidity;BMP_temperature;BMP_pressure;BME280_temperature;BME280_humidity;BME280_pressure;Samples;Min_cycle;Max_cycle;Signal;HPM_P1;HPM_P2
2022/08/04 00:09:30;;;;;;;0.20;0.10;;;;;;;;;;6061377;23;20089;-85
2022/08/04 00:15:44;;;;;;;1.53;0.77;;;;;;;;;;6089301;23;20029;-86
2022/08/04 00:18:37;;;;;;;;;;;;;;;;;;;;;
2022/08/04 00:30:26;;;;;;;0.20;0.10;;;;;;;;;;6173623;23;20060;-87
2022/08/04 00:45:16;;;;;;;0.20;0.10;;;;;;;;;;6187797;22;20184;-88
2022/08/04 00:51:21;;;;;;;0.20;0.10;;;;;;;;;;6174808;23;20028;-88
2022/08/04 00:54:24;;;;;;;0.20;0.10;;;;;;;;;;6242432;22;20019;-86
2022/08/04 00:57:21;;;;;;;0.20;0.10;;;;;;;;;;6253332;22;20023;-86
2022/08/04 01:00:37;;;;;;;0.20;0.10;;;;;;;;;;6244979;22;20019;-88
2022/08/04 01:07:17;;;;;;;;;;;;;;;;;;;;;
2022/08/04 01:09:58;;;;;;;;;;;;;;;;;;6120452;23;20025;-91
2022/08/04 01:12:52;;;;;;;0.20;0.10;;;;;;;;;;6093336;23;19948;-88
2022/08/04 01:16:06;;;;;;;0.20;0.10;;;;;;;;;;6146892;22;20023;-89
2022/08/04 01:26:00;;;;;;;0.20;0.20;;;;;;;;;;6120024;23;20112;-89
2022/08/04 01:29:00;;;;;;;0.20;0.10;;;;;;;;;;6092591;23;20262;-87
2022/08/04 01:40:52;;;;;;;0.20;0.13;;;;;;;;;;6238630;23;20069;-89
2022/08/04 01:53:48;;;;;;;0.30;0.20;;;;;;;;;;5989946;23;20028;-89
2022/08/04 01:59:51;;;;;;;0.20;0.10;;;;;;;;;;6090210;23;20033;-87
2022/08/04 02:09:10;;;;;;;0.20;0.10;;;;;;;;;;6203756;23;20612;-87
2022/08/04 02:19:01;;;;;;;;;;;;;;;;;;;;;
2022/08/04 02:22:09;;;;;;;0.20;0.10;;;;;;;;;;6183787;23;20503;-88
2022/08/04 02:32:20;;;;;;;0.20;0.10;;;;;;;;;;6147022;23;20012;-88
2022/08/04 03:00:22;;;;;;;0.20;0.10;;;;;;;;;;6331866;22;20097;-87
2022/08/04 03:02:55;;;;;;;0.20;0.10;;;;;;;;;;6239438;22;20480;-87
2022/08/04 03:05:58;;;;;;;0.20;0.10;;;;;;;;;;6272405;22;20030;-90
2022/08/04 03:29:58;;;;;;;;;;;;;;;;;;;;;
2022/08/04 03:50:24;;;;;;;;;;;;;;;;;;;;;
2022/08/04 05:22:23;;;;;;;0.20;0.10;;;;;;;;;;6314512;22;20084;-85
2022/08/04 05:25:00;;;;;;;0.20;0.10;;;;;;;;;;6206869;22;20085;-85
2022/08/04 05:41:49;;;;;;;;;;;;;;;;;;;;;
2022/08/04 05:44:56;;;;;;;0.20;0.20;;;;;;;;;;6177093;23;20020;-84
2022/08/04 05:50:24;;;;;;;0.20;0.10;;;;;;;;;;6177318;23;20023;-83
2022/08/04 05:56:09;;;;;;;0.20;0.10;;;;;;;;;;6150316;23;20021;-84
2022/08/04 05:58:46;;;;;;;0.20;0.10;;;;;;;;;;6153661;23;20804;-83
2022/08/04 06:01:14;;;;;;;0.20;0.10;;;;;;;;;;6147401;23;20920;-82
2022/08/04 06:03:43;;;;;;;0.20;0.10;;;;;;;;;;6147399;23;20021;-83
2022/08/04 06:06:10;;;;;;;0.20;0.10;;;;;;;;;;6149115;23;20021;-82
2022/08/04 06:08:37;;;;;;;0.20;0.10;;;;;;;;;;6207232;22;20455;-83
2022/08/04 06:11:06;;;;;;;0.20;0.10;;;;;;;;;;6214794;22;20015;-82
2022/08/04 06:13:43;;;;;;;0.20;0.15;;;;;;;;;;6213626;22;20398;-83
2022/08/04 06:16:10;;;;;;;0.20;0.10;;;;;;;;;;6210910;22;20015;-82
2022/08/04 06:18:37;;;;;;;0.20;0.10;;;;;;;;;;6237407;22;20078;-83
2022/08/04 06:21:04;;;;;;;0.20;0.10;;;;;;;;;;6212739;22;20011;-82
2022/08/04 06:23:32;;;;;;;0.20;0.10;;;;;;;;;;6213227;22;20019;-82
2022/08/04 06:25:59;;;;;;;0.20;0.10;;;;;;;;;;6213673;22;20019;-83
2022/08/04 06:28:26;;;;;;;0.20;0.10;;;;;;;;;;6216802;22;20016;-82
2022/08/04 06:30:54;;;;;;;0.20;0.10;;;;;;;;;;6211660;22;20078;-82
2022/08/04 06:33:32;;;;;;;0.20;0.10;;;;;;;;;;6207780;22;20011;-83
2022/08/04 06:35:58;;;;;;;0.20;0.10;;;;;;;;;;6211412;22;20091;-83
2022/08/04 06:38:25;;;;;;;0.20;0.10;;;;;;;;;;6212663;22;20396;-84
2022/08/04 06:40:52;;;;;;;0.20;0.10;;;;;;;;;;6210785;22;20021;-82
2022/08/04 06:43:19;;;;;;;0.20;0.10;;;;;;;;;;6234735;22;20011;-83
2022/08/04 06:45:46;;;;;;;0.20;0.10;;;;;;;;;;6211146;22;20110;-84
2022/08/04 06:48:14;;;;;;;0.20;0.10;;;;;;;;;;6209804;22;20085;-82
2022/08/04 06:50:40;;;;;;;0.20;0.10;;;;;;;;;;6212277;22;20317;-82
2022/08/04 06:53:07;;;;;;;0.20;0.10;;;;;;;;;;6208661;22;20047;-82
2022/08/04 06:55:33;;;;;;;0.20;0.10;;;;;;;;;;6210586;22;20019;-83
2022/08/04 06:58:00;;;;;;;0.20;0.10;;;;;;;;;;6211735;22;20019;-83
2022/08/04 07:00:27;;;;;;;0.20;0.10;;;;;;;;;;6216306;22;20015;-82
2022/08/04 07:02:54;;;;;;;0.20;0.10;;;;;;;;;;6233983;22;20007;-82
2022/08/04 07:05:20;;;;;;;0.20;0.10;;;;;;;;;;6209885;22;20026;-83
2022/08/04 07:07:47;;;;;;;0.20;0.10;;;;;;;;;;6234508;22;20014;-82
2022/08/04 07:10:14;;;;;;;0.20;0.10;;;;;;;;;;6235394;22;20015;-82
2022/08/04 07:12:40;;;;;;;0.20;0.10;;;;;;;;;;6207906;22;20012;-82
2022/08/04 07:15:07;;;;;;;0.20;0.13;;;;;;;;;;6233380;22;20470;-82
2022/08/04 07:17:37;;;;;;;0.20;0.10;;;;;;;;;;6234643;22;20393;-82
2022/08/04 07:20:05;;;;;;;0.20;0.10;;;;;;;;;;6210166;22;20025;-82
2022/08/04 07:22:31;;;;;;;0.20;0.10;;;;;;;;;;6211163;22;20058;-82
2022/08/04 07:24:57;;;;;;;0.20;0.10;;;;;;;;;;6235500;22;20476;-82
2022/08/04 07:27:24;;;;;;;0.20;0.10;;;;;;;;;;6212956;22;20012;-82
2022/08/04 07:29:50;;;;;;;0.20;0.00;;;;;;;;;;6214715;22;20026;-83
2022/08/04 07:32:18;;;;;;;0.20;0.10;;;;;;;;;;6215666;22;20668;-83
2022/08/04 07:34:44;;;;;;;0.20;0.10;;;;;;;;;;6212964;22;20082;-83
2022/08/04 07:37:10;;;;;;;0.20;0.10;;;;;;;;;;6208338;22;20049;-83
2022/08/04 07:39:36;;;;;;;0.20;0.10;;;;;;;;;;6207996;22;20020;-83
2022/08/04 07:42:03;;;;;;;0.20;0.10;;;;;;;;;;6231101;22;20012;-82
2022/08/04 07:44:33;;;;;;;0.20;0.10;;;;;;;;;;6210640;22;20016;-83
2022/08/04 07:47:01;;;;;;;0.20;0.10;;;;;;;;;;6208431;22;20015;-82
2022/08/04 07:49:27;;;;;;;0.20;0.10;;;;;;;;;;6208950;22;20016;-82
2022/08/04 07:51:56;;;;;;;0.20;0.10;;;;;;;;;;6237122;22;20011;-83
2022/08/04 07:54:32;;;;;;;0.20;0.10;;;;;;;;;;6234282;22;20841;-84
2022/08/04 07:56:58;;;;;;;0.20;0.10;;;;;;;;;;6204918;22;20073;-83
2022/08/04 07:59:27;;;;;;;0.20;0.10;;;;;;;;;;6233360;22;20662;-83
2022/08/04 08:01:54;;;;;;;0.20;0.10;;;;;;;;;;6210354;22;20033;-83
2022/08/04 08:04:22;;;;;;;0.20;0.10;;;;;;;;;;6211368;22;20471;-82
2022/08/04 08:06:50;;;;;;;0.20;0.10;;;;;;;;;;6208643;22;20019;-83
2022/08/04 08:09:20;;;;;;;0.20;0.10;;;;;;;;;;6208347;22;20023;-83
2022/08/04 08:11:52;;;;;;;0.20;0.10;;;;;;;;;;6211729;22;20095;-83
2022/08/04 08:14:36;;;;;;;0.20;0.10;;;;;;;;;;6239858;22;20043;-82
2022/08/04 08:17:03;;;;;;;0.20;0.10;;;;;;;;;;6237104;22;20395;-83
2022/08/04 08:19:30;;;;;;;0.20;0.10;;;;;;;;;;6235680;22;20051;-83
2022/08/04 08:21:56;;;;;;;0.20;0.10;;;;;;;;;;6236778;22;20019;-84
2022/08/04 08:24:22;;;;;;;0.20;0.10;;;;;;;;;;6235451;22;20307;-82
2022/08/04 08:26:48;;;;;;;0.20;0.10;;;;;;;;;;6209643;22;20071;-83
2022/08/04 08:29:14;;;;;;;0.20;0.10;;;;;;;;;;6235918;22;20019;-83
2022/08/04 08:31:42;;;;;;;0.20;0.10;;;;;;;;;;6210634;22;20018;-83
2022/08/04 08:34:10;;;;;;;0.20;0.10;;;;;;;;;;6241786;22;20588;-83
2022/08/04 08:36:43;;;;;;;0.20;0.10;;;;;;;;;;6208200;22;20015;-83
2022/08/04 08:39:12;;;;;;;0.43;0.43;;;;;;;;;;6206110;22;20657;-83
2022/08/04 08:41:57;;;;;;;0.20;0.10;;;;;;;;;;6214893;22;20024;-84
2022/08/04 08:44:23;;;;;;;0.20;0.10;;;;;;;;;;6208941;22;20012;-84
2022/08/04 08:47:15;;;;;;;0.20;0.10;;;;;;;;;;6208260;22;20058;-83
2022/08/04 08:50:00;;;;;;;0.20;0.10;;;;;;;;;;6225798;22;20015;-83
2022/08/04 08:52:26;;;;;;;0.20;0.10;;;;;;;;;;6206060;22;20045;-84
2022/08/04 08:54:52;;;;;;;0.60;0.60;;;;;;;;;;6207057;22;20012;-84
2022/08/04 08:57:42;;;;;;;0.20;0.10;;;;;;;;;;6232907;22;20090;-83
2022/08/04 09:00:15;;;;;;;0.20;0.10;;;;;;;;;;6230409;22;20051;-84
2022/08/04 09:02:45;;;;;;;0.22;0.17;;;;;;;;;;6206232;22;20105;-83
2022/08/04 09:05:14;;;;;;;0.20;0.10;;;;;;;;;;6209989;22;20050;-83
2022/08/04 09:07:49;;;;;;;0.40;0.40;;;;;;;;;;6209683;22;20073;-83
2022/08/04 09:10:38;;;;;;;0.20;0.10;;;;;;;;;;6226250;22;20026;-84
2022/08/04 09:13:04;;;;;;;0.20;0.10;;;;;;;;;;6232149;22;20033;-83
2022/08/04 09:15:36;;;;;;;0.20;0.10;;;;;;;;;;6210085;22;20019;-83
2022/08/04 09:18:02;;;;;;;;;;;;;;;;;;6210922;22;20018;-84
2022/08/04 09:20:55;;;;;;;0.20;0.10;;;;;;;;;;6210598;22;19915;-84
2022/08/04 09:23:39;;;;;;;0.20;0.10;;;;;;;;;;6207098;22;20019;-81
2022/08/04 09:26:10;;;;;;;0.20;0.10;;;;;;;;;;6236466;22;20031;-83
2022/08/04 09:28:57;;;;;;;0.20;0.10;;;;;;;;;;6236743;22;20020;-85
2022/08/04 09:31:28;;;;;;;0.20;0.10;;;;;;;;;;6152243;22;20061;-85
2022/08/04 09:33:59;;;;;;;0.20;0.10;;;;;;;;;;6204415;22;20019;-83
2022/08/04 09:36:36;;;;;;;0.20;0.10;;;;;;;;;;6206987;22;20285;-85
2022/08/04 09:39:11;;;;;;;0.20;0.10;;;;;;;;;;6202275;22;20090;-83
2022/08/04 09:41:58;;;;;;;2.05;1.23;;;;;;;;;;6208083;22;20026;-83
2022/08/04 09:44:30;;;;;;;0.20;0.10;;;;;;;;;;6210630;22;20019;-83
2022/08/04 09:47:09;;;;;;;0.20;0.10;;;;;;;;;;6209341;22;20106;-82
2022/08/04 09:49:41;;;;;;;0.20;0.10;;;;;;;;;;6208309;22;20019;-83
2022/08/04 09:52:07;;;;;;;;;;;;;;;;;;6233838;22;20012;-82
2022/08/04 09:54:39;;;;;;;0.20;0.10;;;;;;;;;;6236273;22;19911;-82
2022/08/04 09:57:13;;;;;;;0.20;0.10;;;;;;;;;;6213391;22;20013;-85
2022/08/04 09:59:53;;;;;;;0.20;0.10;;;;;;;;;;6236238;22;20455;-82
2022/08/04 10:02:21;;;;;;;0.20;0.10;;;;;;;;;;6235592;22;20022;-84
2022/08/04 10:04:51;;;;;;;0.20;0.10;;;;;;;;;;6235064;22;20077;-84
2022/08/04 10:07:36;;;;;;;0.20;0.10;;;;;;;;;;6236505;22;20016;-82
2022/08/04 10:10:14;;;;;;;0.20;0.10;;;;;;;;;;6236540;22;20048;-82
2022/08/04 10:12:50;;;;;;;0.20;0.10;;;;;;;;;;6236593;22;20015;-84
2022/08/04 10:15:19;;;;;;;0.20;0.10;;;;;;;;;;6211337;22;20051;-84
2022/08/04 10:17:54;;;;;;;0.20;0.10;;;;;;;;;;6236122;22;20844;-85
2022/08/04 10:20:40;;;;;;;0.20;0.10;;;;;;;;;;6211764;22;20531;-84
2022/08/04 10:23:12;;;;;;;0.20;0.10;;;;;;;;;;6174162;22;20020;-82
2022/08/04 10:25:47;;;;;;;0.20;0.10;;;;;;;;;;6236877;22;20170;-84
2022/08/04 10:28:16;;;;;;;0.20;0.10;;;;;;;;;;6212202;22;20094;-83
2022/08/04 10:30:47;;;;;;;0.20;0.10;;;;;;;;;;6215301;22;20019;-85
2022/08/04 10:33:26;;;;;;;0.20;0.10;;;;;;;;;;6236799;22;20016;-84
2022/08/04 10:36:25;;;;;;;0.20;0.15;;;;;;;;;;6211493;22;20514;-84
2022/08/04 10:39:11;;;;;;;0.20;0.10;;;;;;;;;;6193766;22;20081;-83
2022/08/04 10:41:42;;;;;;;0.20;0.10;;;;;;;;;;6213094;22;20620;-85
2022/08/04 10:44:23;;;;;;;0.20;0.10;;;;;;;;;;6216812;22;20038;-84
2022/08/04 10:46:52;;;;;;;0.20;0.10;;;;;;;;;;6214067;22;20525;-84
2022/08/04 10:49:23;;;;;;;0.20;0.10;;;;;;;;;;6267063;22;20051;-84
2022/08/04 10:51:52;;;;;;;0.20;0.13;;;;;;;;;;6213052;22;20015;-83
2022/08/04 10:54:26;;;;;;;0.20;0.10;;;;;;;;;;6211316;22;20066;-84
2022/08/04 10:57:11;;;;;;;0.20;0.10;;;;;;;;;;6238188;22;20067;-85
2022/08/04 10:59:43;;;;;;;0.20;0.10;;;;;;;;;;6213068;22;20717;-84
2022/08/04 11:02:31;;;;;;;0.20;0.10;;;;;;;;;;6213191;22;20076;-84
2022/08/04 11:05:19;;;;;;;0.20;0.10;;;;;;;;;;6238088;22;20024;-85
2022/08/04 11:07:49;;;;;;;0.20;0.10;;;;;;;;;;6093368;23;20017;-84
2022/08/04 11:10:17;;;;;;;0.20;0.10;;;;;;;;;;6199598;22;20024;-83
2022/08/04 11:12:46;;;;;;;0.20;0.10;;;;;;;;;;6208593;22;20015;-84
2022/08/04 11:15:21;;;;;;;0.20;0.10;;;;;;;;;;6211334;22;20034;-84
2022/08/04 11:31:50;;;;;;;0.20;0.10;;;;;;;;;;6330712;22;20025;-92
2022/08/04 11:44:57;;;;;;;0.20;0.10;;;;;;;;;;6000120;23;20032;-89
2022/08/04 11:47:52;;;;;;;0.20;0.10;;;;;;;;;;5984949;23;20079;-89
2022/08/04 11:50:55;;;;;;;0.47;0.30;;;;;;;;;;6148012;23;20429;-91
2022/08/04 11:53:46;;;;;;;0.20;0.10;;;;;;;;;;6150989;23;20013;-87
2022/08/04 11:56:21;;;;;;;0.20;0.10;;;;;;;;;;6121091;23;20092;-88
2022/08/04 11:59:13;;;;;;;0.20;0.10;;;;;;;;;;6121721;23;20021;-88
2022/08/04 12:05:30;;;;;;;0.20;0.10;;;;;;;;;;6121370;23;20029;-89
2022/08/04 12:11:56;;;;;;;0.20;0.10;;;;;;;;;;6124554;23;20072;-88
2022/08/04 12:14:56;;;;;;;0.20;0.10;;;;;;;;;;6084641;23;20181;-92
2022/08/04 12:20:40;;;;;;;0.20;0.10;;;;;;;;;;6328245;22;20338;-88
2022/08/04 12:24:00;;;;;;;;;;;;;;;;;;;;;
2022/08/04 12:33:52;;;;;;;0.20;0.10;;;;;;;;;;6144593;23;20024;-90
2022/08/04 12:39:52;;;;;;;0.20;0.10;;;;;;;;;;6089770;23;20022;-89
2022/08/04 12:46:19;;;;;;;0.30;0.30;;;;;;;;;;5996533;23;20067;-89
2022/08/04 12:49:40;;;;;;;;;;;;;;;;;;;;;
2022/08/04 13:02:06;;;;;;;0.20;0.10;;;;;;;;;;5870648;24;20028;-88
2022/08/04 13:24:33;;;;;;;0.20;0.10;;;;;;;;;;5990933;23;20055;-91
2022/08/04 13:33:37;;;;;;;0.20;0.10;;;;;;;;;;6118879;23;20022;-89
2022/08/04 13:39:46;;;;;;;;;;;;;;;;;;6154273;23;20468;-87
2022/08/04 13:42:37;;;;;;;0.20;0.10;;;;;;;;;;6232343;23;19915;-89
2022/08/04 13:45:05;;;;;;;0.20;0.10;;;;;;;;;;6185033;23;20027;-83
2022/08/04 13:47:36;;;;;;;0.20;0.10;;;;;;;;;;6235505;23;20012;-90
2022/08/04 13:50:17;;;;;;;0.20;0.10;;;;;;;;;;6186192;23;20015;-87
2022/08/04 13:53:11;;;;;;;0.20;0.10;;;;;;;;;;6184112;23;20016;-90
2022/08/04 13:55:38;;;;;;;0.20;0.10;;;;;;;;;;6183182;23;20014;-85
2022/08/04 14:04:15;;;;;;;0.20;0.10;;;;;;;;;;6299247;22;20027;-89
2022/08/04 14:07:05;;;;;;;0.20;0.10;;;;;;;;;;6277913;22;20047;-90
2022/08/04 14:09:57;;;;;;;0.20;0.10;;;;;;;;;;6253823;22;20007;-90
2022/08/04 14:12:48;;;;;;;0.20;0.10;;;;;;;;;;6267399;22;20419;-85
2022/08/04 14:15:29;;;;;;;0.20;0.10;;;;;;;;;;6286911;22;20495;-87
2022/08/04 14:18:21;;;;;;;0.20;0.10;;;;;;;;;;6266521;22;20015;-86
2022/08/04 14:21:12;;;;;;;0.20;0.10;;;;;;;;;;6267056;22;20242;-85
2022/08/04 14:23:59;;;;;;;0.20;0.10;;;;;;;;;;6237371;22;20019;-85
2022/08/04 14:26:45;;;;;;;0.20;0.10;;;;;;;;;;6220152;22;20363;-86
2022/08/04 14:29:13;;;;;;;0.20;0.10;;;;;;;;;;6239209;22;20016;-85
2022/08/04 14:34:56;;;;;;;0.20;0.10;;;;;;;;;;6265989;22;20069;-85
2022/08/04 14:37:57;;;;;;;0.20;0.10;;;;;;;;;;6240901;22;20011;-84
2022/08/04 14:40:30;;;;;;;0.20;0.10;;;;;;;;;;6233286;22;20016;-86
2022/08/04 14:42:56;;;;;;;0.20;0.10;;;;;;;;;;6266461;22;20026;-86
2022/08/04 14:48:46;;;;;;;0.20;0.10;;;;;;;;;;6265958;22;20866;-87
2022/08/04 14:51:13;;;;;;;0.20;0.10;;;;;;;;;;6241531;22;20054;-84
2022/08/04 14:57:14;;;;;;;0.20;0.10;;;;;;;;;;6266214;22;20102;-86
2022/08/04 14:59:53;;;;;;;0.20;0.10;;;;;;;;;;6267982;22;20571;-84
2022/08/04 15:02:22;;;;;;;0.20;0.10;;;;;;;;;;6241179;22;20012;-85
2022/08/04 15:05:14;;;;;;;0.20;0.10;;;;;;;;;;6215040;22;20022;-85
2022/08/04 15:07:46;;;;;;;0.20;0.10;;;;;;;;;;6239410;22;20015;-86
2022/08/04 15:10:31;;;;;;;0.20;0.10;;;;;;;;;;6236711;22;20019;-84
2022/08/04 15:13:06;;;;;;;0.20;0.10;;;;;;;;;;6237054;22;20016;-86
2022/08/04 15:15:48;;;;;;;0.20;0.10;;;;;;;;;;6263908;22;20046;-85
2022/08/04 15:21:40;;;;;;;0.20;0.10;;;;;;;;;;6264090;22;20103;-85
2022/08/04 15:24:18;;;;;;;0.20;0.10;;;;;;;;;;6238953;22;20027;-83
2022/08/04 15:26:51;;;;;;;0.20;0.10;;;;;;;;;;6210232;22;20015;-88
2022/08/04 15:29:28;;;;;;;0.20;0.10;;;;;;;;;;6237169;22;20527;-83
2022/08/04 15:32:02;;;;;;;0.20;0.10;;;;;;;;;;6240599;22;20058;-85
2022/08/04 15:35:05;;;;;;;0.20;0.10;;;;;;;;;;6235231;22;20023;-86
2022/08/04 15:37:49;;;;;;;;;;;;;;;;;;6263978;22;20015;-84
2022/08/04 15:43:58;;;;;;;0.20;0.10;;;;;;;;;;6114394;23;20084;-86
2022/08/04 15:46:39;;;;;;;0.20;0.10;;;;;;;;;;6090955;23;20492;-90
2022/08/04 15:49:46;;;;;;;0.20;0.10;;;;;;;;;;6153182;23;20013;-83
2022/08/04 15:52:18;;;;;;;0.20;0.10;;;;;;;;;;6056083;23;21049;-82
2022/08/04 15:54:47;;;;;;;0.20;0.10;;;;;;;;;;6163640;23;20019;-86
2022/08/04 15:57:13;;;;;;;0.20;0.10;;;;;;;;;;6148544;23;20013;-85
2022/08/04 15:59:50;;;;;;;;;;;;;;;;;;6153888;23;20020;-86
2022/08/04 16:09:12;;;;;;;0.20;0.10;;;;;;;;;;6120440;23;20021;-85
2022/08/04 16:11:48;;;;;;;0.20;0.10;;;;;;;;;;6132252;23;20013;-86
2022/08/04 16:14:40;;;;;;;0.20;0.10;;;;;;;;;;6122835;23;20048;-87
2022/08/04 16:17:42;;;;;;;0.20;0.10;;;;;;;;;;6122317;23;20012;-88
2022/08/04 16:20:31;;;;;;;0.20;0.10;;;;;;;;;;6145571;23;20068;-86
2022/08/04 16:23:36;;;;;;;0.20;0.10;;;;;;;;;;6149278;23;20108;-86
2022/08/04 16:26:04;;;;;;;0.20;0.10;;;;;;;;;;6153058;23;20013;-89
2022/08/04 16:28:42;;;;;;;0.20;0.10;;;;;;;;;;6151772;23;20019;-86
2022/08/04 16:31:28;;;;;;;0.20;0.10;;;;;;;;;;6242639;22;20073;-87
2022/08/04 16:34:00;;;;;;;0.20;0.10;;;;;;;;;;6271396;22;20047;-87
2022/08/04 16:36:52;;;;;;;0.20;0.10;;;;;;;;;;6239865;22;20012;-87
2022/08/04 16:39:19;;;;;;;0.20;0.10;;;;;;;;;;6238272;22;20448;-85
2022/08/04 16:41:45;;;;;;;0.20;0.10;;;;;;;;;;6241098;22;20070;-86
2022/08/04 16:44:30;;;;;;;0.20;0.10;;;;;;;;;;6241785;22;20094;-87
2022/08/04 16:47:09;;;;;;;;;;;;;;;;;;;;;
2022/08/04 16:50:00;;;;;;;0.20;0.10;;;;;;;;;;6269722;22;20016;-86
2022/08/04 16:52:29;;;;;;;0.20;0.10;;;;;;;;;;6243139;22;20012;-87
2022/08/04 16:54:58;;;;;;;0.20;0.10;;;;;;;;;;6242213;22;20081;-84
2022/08/04 16:57:27;;;;;;;0.20;0.10;;;;;;;;;;6267665;22;20011;-86
2022/08/04 16:59:59;;;;;;;0.20;0.10;;;;;;;;;;6217550;22;20026;-87
2022/08/04 17:02:27;;;;;;;;;;;;;;;;;;6242828;22;20026;-84
2022/08/04 17:05:10;;;;;;;0.20;0.10;;;;;;;;;;6244009;22;19915;-86
2022/08/04 17:08:08;;;;;;;;;;;;;;;;;;;;;
2022/08/04 17:10:38;;;;;;;0.20;0.10;;;;;;;;;;6267471;22;20062;-86
2022/08/04 17:13:24;;;;;;;0.20;0.10;;;;;;;;;;6215253;22;20479;-87
2022/08/04 17:15:51;;;;;;;0.20;0.10;;;;;;;;;;6241205;22;20016;-86
2022/08/04 17:18:18;;;;;;;0.20;0.10;;;;;;;;;;6240062;22;20065;-85
2022/08/04 17:20:44;;;;;;;0.20;0.10;;;;;;;;;;6241914;22;20345;-88
2022/08/04 17:23:29;;;;;;;0.20;0.10;;;;;;;;;;6243115;22;20008;-86
2022/08/04 17:26:05;;;;;;;0.20;0.10;;;;;;;;;;6241009;22;20015;-87
2022/08/04 17:28:33;;;;;;;0.20;0.10;;;;;;;;;;6241275;22;20045;-86
2022/08/04 17:31:02;;;;;;;0.20;0.10;;;;;;;;;;6268441;22;20007;-87
2022/08/04 17:33:31;;;;;;;0.20;0.10;;;;;;;;;;6241490;22;20103;-85
2022/08/04 17:36:11;;;;;;;;;;;;;;;;;;;;;
2022/08/04 17:38:45;;;;;;;0.20;0.10;;;;;;;;;;6271750;22;20012;-87
2022/08/04 17:41:21;;;;;;;0.20;0.10;;;;;;;;;;6239408;22;20015;-87
2022/08/04 17:43:51;;;;;;;0.20;0.10;;;;;;;;;;6240398;22;20025;-88
2022/08/04 17:46:19;;;;;;;0.20;0.10;;;;;;;;;;6240231;22;20039;-85
2022/08/04 17:48:51;;;;;;;0.20;0.10;;;;;;;;;;6239702;22;20096;-86
2022/08/04 17:51:17;;;;;;;0.20;0.10;;;;;;;;;;6266128;22;20019;-85
2022/08/04 17:53:44;;;;;;;0.20;0.10;;;;;;;;;;6238617;22;20281;-87
2022/08/04 17:56:49;;;;;;;;;;;;;;;;;;;;;
2022/08/04 17:59:39;;;;;;;0.20;0.10;;;;;;;;;;6224215;22;20077;-86
2022/08/04 18:02:08;;;;;;;0.20;0.10;;;;;;;;;;6262609;22;20019;-88
2022/08/04 18:04:53;;;;;;;0.20;0.10;;;;;;;;;;6237116;22;20118;-86
2022/08/04 18:11:05;;;;;;;0.20;0.10;;;;;;;;;;6263231;22;20019;-87
2022/08/04 18:13:52;;;;;;;0.20;0.10;;;;;;;;;;6140333;23;20457;-87
2022/08/04 18:16:59;;;;;;;0.20;0.10;;;;;;;;;;6220662;22;20047;-86
2022/08/04 18:25:41;;;;;;;0.20;0.10;;;;;;;;;;6263139;22;20019;-87
2022/08/04 18:28:08;;;;;;;0.20;0.10;;;;;;;;;;6239109;22;20417;-87
2022/08/04 18:31:15;;;;;;;0.20;0.10;;;;;;;;;;6241258;22;20012;-87
2022/08/04 18:34:22;;;;;;;0.20;0.10;;;;;;;;;;6225782;22;20102;-86
2022/08/04 18:40:28;;;;;;;0.20;0.10;;;;;;;;;;6145998;23;20101;-87
2022/08/04 18:43:06;;;;;;;0.20;0.10;;;;;;;;;;6147012;23;20013;-87
2022/08/04 18:56:57;;;;;;;0.20;0.10;;;;;;;;;;5893129;24;20029;-88
2022/08/04 19:06:14;;;;;;;0.20;0.10;;;;;;;;;;5833305;24;20043;-88
2022/08/04 19:08:53;;;;;;;0.20;0.10;;;;;;;;;;5859256;24;20522;-87
2022/08/04 19:11:29;;;;;;;;;;;;;;;;;;;;;
2022/08/04 19:14:19;;;;;;;;;;;;;;;;;;;;;
2022/08/04 19:16:59;;;;;;;0.20;0.10;;;;;;;;;;5864522;24;20093;-85
2022/08/04 19:26:51;;;;;;;0.20;0.10;;;;;;;;;;5972915;23;20025;-86
2022/08/04 19:29:46;;;;;;;0.20;0.13;;;;;;;;;;6108664;23;20017;-85
2022/08/04 19:32:48;;;;;;;;;;;;;;;;;;6135798;23;20449;-86
2022/08/04 19:35:32;;;;;;;0.20;0.10;;;;;;;;;;6149218;23;19919;-87
2022/08/04 19:46:45;;;;;;;0.20;0.10;;;;;;;;;;6299566;22;20019;-86
2022/08/04 19:50:02;;;;;;;;;;;;;;;;;;;;;
2022/08/04 19:56:09;;;;;;;;;;;;;;;;;;;;;
2022/08/04 20:06:01;;;;;;;;;;;;;;;;;;;;;
2022/08/04 20:08:59;;;;;;;0.20;0.10;;;;;;;;;;6143704;22;20022;-87
2022/08/04 20:11:28;;;;;;;0.20;0.10;;;;;;;;;;6300757;22;20483;-87
2022/08/04 20:13:57;;;;;;;0.20;0.10;;;;;;;;;;6299971;22;20478;-87
2022/08/04 20:16:23;;;;;;;0.20;0.10;;;;;;;;;;6249691;22;20017;-83
2022/08/04 20:18:49;;;;;;;0.20;0.10;;;;;;;;;;6264831;22;20139;-85
2022/08/04 20:21:18;;;;;;;0.20;0.10;;;;;;;;;;6244379;22;20023;-89
2022/08/04 20:23:44;;;;;;;0.20;0.10;;;;;;;;;;6246261;22;20019;-86
2022/08/04 20:26:12;;;;;;;0.20;0.10;;;;;;;;;;6245013;22;20475;-86
2022/08/04 20:28:41;;;;;;;0.20;0.10;;;;;;;;;;6222500;22;20073;-86
2022/08/04 20:31:07;;;;;;;0.20;0.10;;;;;;;;;;6220833;22;20411;-86
2022/08/04 20:33:33;;;;;;;0.20;0.10;;;;;;;;;;6222577;22;20015;-85
2022/08/04 20:35:59;;;;;;;0.20;0.10;;;;;;;;;;6218942;22;20433;-87
2022/08/04 20:38:53;;;;;;;0.20;0.10;;;;;;;;;;6246646;22;20026;-86
2022/08/04 20:41:28;;;;;;;0.20;0.10;;;;;;;;;;6244498;22;20015;-86
2022/08/04 20:44:02;;;;;;;0.20;0.10;;;;;;;;;;6245291;22;20022;-87
2022/08/04 20:46:53;;;;;;;0.20;0.10;;;;;;;;;;6269417;22;20072;-89
2022/08/04 20:49:25;;;;;;;0.20;0.10;;;;;;;;;;6244608;22;20495;-86
2022/08/04 20:51:54;;;;;;;;;;;;;;;;;;6242501;22;20019;-83
2022/08/04 20:54:20;;;;;;;0.20;0.10;;;;;;;;;;6270496;22;19990;-87
2022/08/04 20:56:46;;;;;;;0.20;0.13;;;;;;;;;;6270560;22;20019;-86
2022/08/04 20:59:12;;;;;;;0.20;0.10;;;;;;;;;;6242047;22;20102;-83
2022/08/04 21:01:38;;;;;;;0.20;0.10;;;;;;;;;;6222675;22;20087;-86
2022/08/04 21:04:34;;;;;;;0.20;0.10;;;;;;;;;;6274016;22;20026;-87
2022/08/04 21:07:13;;;;;;;0.20;0.10;;;;;;;;;;6271479;22;20068;-87
2022/08/04 21:09:40;;;;;;;0.20;0.10;;;;;;;;;;6246502;22;20072;-87
2022/08/04 21:12:07;;;;;;;0.20;0.10;;;;;;;;;;6248005;22;20321;-83
2022/08/04 21:14:33;;;;;;;0.20;0.10;;;;;;;;;;6248713;22;20026;-86
2022/08/04 21:16:59;;;;;;;0.20;0.10;;;;;;;;;;6248509;22;20011;-87
2022/08/04 21:19:26;;;;;;;0.20;0.10;;;;;;;;;;6248288;22;20090;-84
2022/08/04 21:21:52;;;;;;;0.20;0.10;;;;;;;;;;6248467;22;20467;-86
2022/08/04 21:24:19;;;;;;;0.20;0.10;;;;;;;;;;6250198;22;20339;-87
2022/08/04 21:26:50;;;;;;;0.20;0.10;;;;;;;;;;6240977;22;20019;-84
2022/08/04 21:32:11;;;;;;;0.20;0.10;;;;;;;;;;6248064;22;20196;-85
2022/08/04 21:34:37;;;;;;;1.08;0.75;;;;;;;;;;6267179;22;20023;-85
2022/08/04 21:37:04;;;;;;;0.20;0.10;;;;;;;;;;6241138;22;20041;-84
2022/08/04 21:39:30;;;;;;;0.20;0.10;;;;;;;;;;6261758;22;20089;-85
2022/08/04 21:41:56;;;;;;;0.20;0.10;;;;;;;;;;6240252;22;20440;-85
2022/08/04 21:44:22;;;;;;;0.20;0.10;;;;;;;;;;6245454;22;20508;-85
2022/08/04 21:46:48;;;;;;;0.20;0.10;;;;;;;;;;6248184;22;20086;-86
2022/08/04 21:49:14;;;;;;;0.20;0.10;;;;;;;;;;6269359;22;20015;-85
2022/08/04 21:51:43;;;;;;;0.20;0.10;;;;;;;;;;6269977;22;20022;-85
2022/08/04 21:54:09;;;;;;;0.20;0.10;;;;;;;;;;6270895;22;20007;-86
2022/08/04 21:56:42;;;;;;;0.25;0.10;;;;;;;;;;6272864;22;20011;-85
2022/08/04 21:59:08;;;;;;;0.20;0.10;;;;;;;;;;6244122;22;20015;-85
2022/08/04 22:01:34;;;;;;;0.20;0.10;;;;;;;;;;6268535;22;20032;-85
2022/08/04 22:04:00;;;;;;;0.20;0.10;;;;;;;;;;6267868;22;20015;-84
2022/08/04 22:06:26;;;;;;;0.20;0.10;;;;;;;;;;6268360;22;20023;-84
2022/08/04 22:08:52;;;;;;;0.20;0.10;;;;;;;;;;6261432;22;20054;-85
2022/08/04 22:11:26;;;;;;;0.20;0.10;;;;;;;;;;6240451;22;20700;-83
2022/08/04 22:13:53;;;;;;;0.20;0.10;;;;;;;;;;6232606;22;20088;-84
2022/08/04 22:16:19;;;;;;;0.20;0.10;;;;;;;;;;6235221;22;20057;-86
2022/08/04 22:18:45;;;;;;;0.20;0.10;;;;;;;;;;6234894;22;20120;-85
2022/08/04 22:21:11;;;;;;;0.20;0.10;;;;;;;;;;6236447;22;20011;-85
2022/08/04 22:23:40;;;;;;;0.20;0.10;;;;;;;;;;6230877;22;20018;-84
2022/08/04 22:26:14;;;;;;;0.20;0.10;;;;;;;;;;6232416;22;20019;-84
2022/08/04 22:28:40;;;;;;;0.43;0.43;;;;;;;;;;6236456;22;20022;-85
2022/08/04 22:31:08;;;;;;;0.20;0.10;;;;;;;;;;6244503;22;20022;-85
2022/08/04 22:33:34;;;;;;;0.20;0.10;;;;;;;;;;6269502;22;20015;-86
2022/08/04 22:36:02;;;;;;;0.20;0.10;;;;;;;;;;6242590;22;20043;-85
2022/08/04 22:38:29;;;;;;;0.20;0.10;;;;;;;;;;6268660;22;20068;-85
2022/08/04 22:40:56;;;;;;;0.20;0.10;;;;;;;;;;6264264;22;20011;-85
2022/08/04 22:43:22;;;;;;;0.20;0.10;;;;;;;;;;6239830;22;20011;-85
2022/08/04 22:49:06;;;;;;;0.63;0.35;;;;;;;;;;6264864;22;20557;-84
2022/08/04 22:51:32;;;;;;;0.20;0.20;;;;;;;;;;6263148;22;20047;-84
2022/08/04 22:53:58;;;;;;;0.20;0.10;;;;;;;;;;6238996;22;20015;-86
2022/08/04 22:56:24;;;;;;;0.20;0.10;;;;;;;;;;6239405;22;20015;-85
2022/08/04 22:59:15;;;;;;;0.20;0.10;;;;;;;;;;6238679;22;20019;-85
2022/08/04 23:01:47;;;;;;;0.20;0.10;;;;;;;;;;6240631;22;20030;-85
2022/08/04 23:04:16;;;;;;;0.20;0.10;;;;;;;;;;6238523;22;20129;-84
2022/08/04 23:06:45;;;;;;;0.20;0.10;;;;;;;;;;6237444;22;20030;-85
2022/08/04 23:09:11;;;;;;;0.20;0.10;;;;;;;;;;6239594;22;20388;-84
2022/08/04 23:11:37;;;;;;;0.20;0.10;;;;;;;;;;6241657;22;20043;-84
2022/08/04 23:14:15;;;;;;;0.20;0.10;;;;;;;;;;6242790;22;20026;-86
2022/08/04 23:16:41;;;;;;;0.20;0.10;;;;;;;;;;6241575;22;20026;-84
2022/08/04 23:19:11;;;;;;;0.20;0.10;;;;;;;;;;6240222;22;20018;-83
2022/08/04 23:21:37;;;;;;;0.20;0.10;;;;;;;;;;6267474;22;20530;-85